createdAt,value
2023-04-15T00:01:12.139Z,102159.75
2023-04-15T00:03:39.867Z,102164.09
2023-04-15T00:06:07.160Z,102157.19
2023-04-15T00:08:34.602Z,102158.13
2023-04-15T00:11:08.018Z,102156.44
2023-04-15T00:13:35.098Z,102160.81
2023-04-15T00:16:02.880Z,102159.94
2023-04-15T00:18:30.170Z,102160.03
2023-04-15T00:20:57.246Z,102162.63
2023-04-15T00:23:24.260Z,102163.53
2023-04-15T00:25:51.270Z,102167.91
2023-04-15T00:28:19.048Z,102173.97
2023-04-15T00:30:46.564Z,102176.63
2023-04-15T00:33:14.257Z,102169.72
2023-04-15T00:35:41.769Z,102171.50
2023-04-15T00:38:08.855Z,102161.28
2023-04-15T00:40:36.628Z,102174.19
2023-04-15T00:43:04.513Z,102181.13
2023-04-15T00:45:32.058Z,102182.03
2023-04-15T00:47:59.453Z,102182.03
2023-04-15T00:50:26.551Z,102181.22
2023-04-15T00:52:53.533Z,102186.41
2023-04-15T00:55:20.595Z,102182.06
2023-04-15T00:57:47.659Z,102187.28
2023-04-15T01:00:14.892Z,102187.28
2023-04-15T01:02:42.361Z,102198.56
2023-04-15T01:05:09.758Z,102196.00
2023-04-15T01:07:36.907Z,102195.19
2023-04-15T01:10:04.899Z,102198.66
2023-04-15T01:12:33.488Z,102198.69
2023-04-15T01:15:01.359Z,102200.47
2023-04-15T01:17:28.503Z,102196.22
2023-04-15T01:19:58.241Z,102197.94
2023-04-15T01:22:26.860Z,102198.03
2023-04-15T01:25:13.593Z,102210.97
2023-04-15T01:27:42.624Z,102214.47
2023-04-15T01:30:10.779Z,102213.63
2023-04-15T01:32:38.334Z,102217.09
2023-04-15T01:35:24.213Z,102215.44
2023-04-15T01:37:51.463Z,102217.22
2023-04-15T01:40:18.495Z,102223.34
2023-04-15T01:42:46.977Z,102219.88
2023-04-15T01:45:15.193Z,102223.38
2023-04-15T01:47:43.850Z,102225.97
2023-04-15T01:50:12.092Z,102225.97
2023-04-15T01:52:40.448Z,102231.16
2023-04-15T01:55:09.807Z,102232.06
2023-04-15T01:57:37.982Z,102235.50
2023-04-15T02:00:08.067Z,102231.16
2023-04-15T02:02:36.344Z,102232.00
2023-04-15T02:05:04.971Z,102237.16
2023-04-15T02:07:33.093Z,102232.84
2023-04-15T02:10:01.535Z,102242.28
2023-04-15T02:12:29.761Z,102249.16
2023-04-15T02:14:58.085Z,102247.38
2023-04-15T02:17:26.876Z,102251.66
2023-04-15T02:19:57.138Z,102246.44
2023-04-15T02:22:25.484Z,102246.34
2023-04-15T02:24:53.937Z,102236.88
2023-04-15T02:27:22.822Z,102264.38
2023-04-15T02:29:53.963Z,102251.31
2023-04-15T02:32:24.632Z,102257.28
2023-04-15T02:34:53.360Z,102266.66
2023-04-15T02:37:21.676Z,102261.41
2023-04-15T02:39:50.300Z,102274.19
2023-04-15T02:42:18.852Z,102274.06
2023-04-15T02:44:47.195Z,102269.59
2023-04-15T02:47:16.295Z,102274.63
2023-04-15T02:49:44.399Z,102277.06
2023-04-15T02:52:12.715Z,102285.56
2023-04-15T02:54:40.998Z,102285.41
2023-04-15T02:57:09.171Z,102297.41
2023-04-15T02:59:37.429Z,102292.00
2023-04-15T03:02:07.993Z,102290.09
2023-04-15T03:04:36.198Z,102295.09
2023-04-15T03:07:04.405Z,102306.16
2023-04-15T03:09:33.347Z,102299.84
2023-04-15T03:12:01.859Z,102297.09
2023-04-15T03:14:30.131Z,102314.97
2023-04-15T03:16:59.723Z,102306.91
2023-04-15T03:19:28.205Z,102312.72
2023-04-15T03:21:56.432Z,102315.84
2023-04-15T03:24:25.132Z,102316.44
2023-04-15T03:26:53.415Z,102322.22
2023-04-15T03:29:21.565Z,102321.91
2023-04-15T03:31:49.808Z,102319.03
2023-04-15T03:34:18.019Z,102323.81
2023-04-15T03:36:47.046Z,102308.81
2023-04-15T03:39:15.612Z,102324.78
2023-04-15T03:41:43.794Z,102328.69
2023-04-15T03:44:12.025Z,102332.50
2023-04-15T03:46:40.340Z,102333.66
2023-04-15T03:49:09.139Z,102333.19
2023-04-15T03:51:37.231Z,102342.19
2023-04-15T03:54:05.990Z,102341.56
2023-04-15T03:56:34.195Z,102343.66
2023-04-15T03:59:02.564Z,102344.09
2023-04-15T04:01:31.035Z,102347.97
2023-04-15T04:03:59.325Z,102356.25
2023-04-15T04:06:27.659Z,102343.47
2023-04-15T04:08:57.103Z,102350.88
2023-04-15T04:11:25.471Z,102354.63
2023-04-15T04:13:53.638Z,102359.22
2023-04-15T04:16:21.955Z,102367.31
2023-04-15T04:18:50.502Z,102361.31
2023-04-15T04:21:18.821Z,102358.41
2023-04-15T04:23:47.087Z,102363.13
2023-04-15T04:26:15.276Z,102367.22
2023-04-15T04:28:43.456Z,102364.41
2023-04-15T04:31:12.134Z,102351.50
2023-04-15T04:33:40.635Z,102345.84
2023-04-15T04:36:08.920Z,102340.78
2023-04-15T04:38:37.225Z,102342.69
2023-04-15T04:41:05.733Z,102338.53
2023-04-15T04:43:33.901Z,102345.19
2023-04-15T04:46:02.086Z,102347.06
2023-04-15T04:48:30.405Z,102349.19
2023-04-15T04:50:58.722Z,102359.19
2023-04-15T04:53:28.270Z,102363.16
2023-04-15T04:55:56.499Z,102359.75
2023-04-15T04:58:24.622Z,102360.41
2023-04-15T05:00:53.183Z,102358.94
2023-04-15T05:03:22.424Z,102355.50
2023-04-15T05:05:50.909Z,102354.88
2023-04-15T05:08:19.278Z,102356.88
2023-04-15T05:10:47.874Z,102362.34
2023-04-15T05:13:16.050Z,102359.25
2023-04-15T05:15:45.150Z,102359.97
2023-04-15T05:18:13.488Z,102358.81
2023-04-15T05:20:42.079Z,102358.16
2023-04-15T05:23:10.303Z,102357.31
2023-04-15T05:25:38.550Z,102355.88
2023-04-15T05:28:06.762Z,102363.09
2023-04-15T05:30:35.028Z,102367.22
2023-04-15T05:33:04.102Z,102364.06
2023-04-15T05:35:32.399Z,102365.75
2023-04-15T05:38:00.987Z,102368.38
2023-04-15T05:40:29.532Z,102373.38
2023-04-15T05:42:57.730Z,102375.53
2023-04-15T05:45:26.153Z,102363.94
2023-04-15T05:47:54.790Z,102368.38
2023-04-15T05:50:23.000Z,102368.44
2023-04-15T05:52:51.499Z,102373.59
2023-04-15T05:55:19.754Z,102372.16
2023-04-15T05:57:48.195Z,102379.50
2023-04-15T06:00:18.769Z,102373.09
2023-04-15T06:02:47.926Z,102367.69
2023-04-15T06:05:16.411Z,102378.97
2023-04-15T06:07:45.580Z,102378.09
2023-04-15T06:10:15.861Z,102377.34
2023-04-15T06:12:44.162Z,102383.16
2023-04-15T06:15:12.541Z,102366.88
2023-04-15T06:17:40.920Z,102385.25
2023-04-15T06:20:09.834Z,102377.66
2023-04-15T06:22:39.422Z,102387.13
2023-04-15T06:25:11.261Z,102377.81
2023-04-15T06:27:39.463Z,102392.25
2023-04-15T06:30:10.060Z,102387.28
2023-04-15T06:32:38.711Z,102384.84
2023-04-15T06:35:07.092Z,102385.03
2023-04-15T06:37:35.224Z,102391.09
2023-04-15T06:40:05.475Z,102390.19
2023-04-15T06:42:34.293Z,102377.72
2023-04-15T06:45:02.794Z,102379.97
2023-04-15T06:47:31.175Z,102378.91
2023-04-15T06:49:59.423Z,102383.84
2023-04-15T06:52:27.585Z,102380.94
2023-04-15T06:54:56.402Z,102382.88
2023-04-15T06:57:24.672Z,102378.41
2023-04-15T06:59:54.752Z,102379.28
2023-04-15T07:02:23.533Z,102367.38
2023-04-15T07:04:51.742Z,102374.16
2023-04-15T07:07:19.976Z,102358.69
2023-04-15T07:09:48.549Z,102372.34
2023-04-15T07:12:16.692Z,102374.28
2023-04-15T07:14:44.964Z,102376.69
2023-04-15T07:17:13.738Z,102386.38
2023-04-15T07:19:42.285Z,102384.53
2023-04-15T07:22:10.553Z,102381.34
2023-04-15T07:24:38.831Z,102371.38
2023-04-15T07:27:07.049Z,102373.88
2023-04-15T07:29:35.286Z,102380.78
2023-04-15T07:32:04.187Z,102384.19
2023-04-15T07:34:32.879Z,102385.38
2023-04-15T07:37:01.589Z,102381.78
2023-04-15T07:39:30.177Z,102371.84
2023-04-15T07:41:59.235Z,102373.44
2023-04-15T07:44:27.842Z,102368.38
2023-04-15T07:46:56.769Z,102369.03
2023-04-15T07:49:24.975Z,102372.63
2023-04-15T07:51:53.909Z,102370.78
2023-04-15T07:54:22.300Z,102368.31
2023-04-15T07:56:50.700Z,102368.63
2023-04-15T07:59:18.789Z,102371.69
2023-04-15T08:01:46.927Z,102367.41
2023-04-15T08:04:15.317Z,102364.44
2023-04-15T08:06:51.086Z,102365.66
2023-04-15T08:09:20.695Z,102361.16
2023-04-15T08:11:51.107Z,102363.50
2023-04-15T08:14:19.456Z,102360.38
2023-04-15T08:16:48.601Z,102363.75
2023-04-15T08:19:17.594Z,102369.53
2023-04-15T08:21:45.839Z,102368.19
2023-04-15T08:24:14.633Z,102357.31
2023-04-15T08:26:42.945Z,102354.44
2023-04-15T08:29:11.143Z,102354.22
2023-04-15T08:31:39.378Z,102359.88
2023-04-15T08:34:07.826Z,102366.63
2023-04-15T08:36:36.331Z,102356.41
2023-04-15T08:39:05.095Z,102355.72
2023-04-15T08:41:36.024Z,102365.50
2023-04-15T08:44:05.936Z,102359.16
2023-04-15T08:46:37.896Z,102354.50
2023-04-15T08:49:08.699Z,102355.06
2023-04-15T08:51:37.019Z,102352.97
2023-04-15T08:54:05.512Z,102359.97
2023-04-15T08:56:33.863Z,102348.25
2023-04-15T08:59:02.637Z,102347.34
2023-04-15T09:01:32.703Z,102352.41
2023-04-15T09:04:03.916Z,102341.25
2023-04-15T09:06:32.152Z,102346.16
2023-04-15T09:09:01.368Z,102345.97
2023-04-15T09:11:31.594Z,102341.97
2023-04-15T09:13:59.853Z,102334.31
2023-04-15T09:16:28.629Z,102346.72
2023-04-15T09:18:56.981Z,102344.47
2023-04-15T09:21:25.192Z,102349.25
2023-04-15T09:23:58.387Z,102346.03
2023-04-15T09:26:36.749Z,102339.03
2023-04-15T09:29:14.534Z,102334.63
2023-04-15T09:31:49.061Z,102341.94
2023-04-15T09:34:27.268Z,102337.44
2023-04-15T09:36:57.237Z,102338.13
2023-04-15T09:39:25.668Z,102328.03
2023-04-15T09:42:07.345Z,102323.63
2023-04-15T09:44:36.007Z,102324.69
2023-04-15T09:47:04.386Z,102334.94
2023-04-15T09:49:33.135Z,102338.13
2023-04-15T09:52:06.185Z,102341.34
2023-04-15T09:54:36.757Z,102328.09
2023-04-15T09:57:10.548Z,102329.50
2023-04-15T09:59:38.873Z,102329.94
2023-04-15T10:02:07.871Z,102325.34
2023-04-15T10:04:40.094Z,102326.03
2023-04-15T10:07:12.942Z,102331.41
2023-04-15T10:09:41.545Z,102324.28
2023-04-15T10:12:10.201Z,102323.56
2023-04-15T10:14:39.121Z,102332.38
2023-04-15T10:17:10.642Z,102324.78
2023-04-15T10:19:38.874Z,102320.06
2023-04-15T10:22:07.660Z,102324.13
2023-04-15T10:24:36.603Z,102324.88
2023-04-15T10:27:06.641Z,102333.91
2023-04-15T10:29:35.441Z,102320.97
2023-04-15T10:32:04.787Z,102323.53
2023-04-15T10:34:33.454Z,102324.44
2023-04-15T10:37:03.893Z,102313.47
2023-04-15T10:39:35.118Z,102313.59
2023-04-15T10:42:11.745Z,102316.91
2023-04-15T10:44:43.458Z,102315.44
2023-04-15T10:47:14.319Z,102305.56
2023-04-15T10:49:52.794Z,102300.13
2023-04-15T10:52:27.753Z,102308.53
2023-04-15T10:55:11.297Z,102296.81
2023-04-15T10:57:41.402Z,102295.34
2023-04-15T11:00:09.569Z,102286.81
2023-04-15T11:02:48.045Z,102291.53
2023-04-15T11:05:18.494Z,102284.78
2023-04-15T11:07:49.492Z,102286.06
2023-04-15T11:10:26.687Z,102286.69
2023-04-15T11:12:58.598Z,102290.28
2023-04-15T11:15:34.285Z,102283.47
2023-04-15T11:18:23.627Z,102271.31
2023-04-15T11:20:57.819Z,102277.91
2023-04-15T11:23:30.891Z,102284.38
2023-04-15T11:26:00.534Z,102266.22
2023-04-15T11:28:30.797Z,102271.44
2023-04-15T11:31:06.362Z,102265.75
2023-04-15T11:33:34.855Z,102273.25
2023-04-15T11:36:04.499Z,102265.63
2023-04-15T11:38:34.865Z,102259.28
2023-04-15T11:41:03.244Z,102261.22
2023-04-15T11:43:32.794Z,102250.50
2023-04-15T11:46:02.790Z,102252.19
2023-04-15T11:48:36.604Z,102251.19
2023-04-15T11:51:07.098Z,102239.63
2023-04-15T11:53:42.290Z,102242.63
2023-04-15T11:56:11.341Z,102236.44
2023-04-15T11:58:39.440Z,102243.38
2023-04-15T12:01:07.570Z,102242.53
2023-04-15T12:03:47.228Z,102249.00
2023-04-15T12:06:19.724Z,102252.72
2023-04-15T12:08:55.544Z,102247.88
2023-04-15T12:11:31.534Z,102252.44
2023-04-15T12:14:04.287Z,102247.03
2023-04-15T12:16:31.902Z,102239.03
2023-04-15T12:19:00.727Z,102232.28
2023-04-15T12:21:34.813Z,102235.72
2023-04-15T12:24:06.714Z,102233.19
2023-04-15T12:26:57.325Z,102232.63
2023-04-15T12:29:29.310Z,102232.44
2023-04-15T12:32:07.488Z,102225.06
2023-04-15T12:34:39.545Z,102224.97
2023-04-15T12:37:11.738Z,102229.72
2023-04-15T12:39:40.880Z,102227.16
2023-04-15T12:42:09.263Z,102234.09
2023-04-15T12:44:37.570Z,102231.31
2023-04-15T12:47:05.641Z,102230.91
2023-04-15T12:49:33.010Z,102235.56
2023-04-15T12:52:03.563Z,102236.41
2023-04-15T12:54:31.918Z,102237.97
2023-04-15T12:56:59.685Z,102236.66
2023-04-15T12:59:27.134Z,102244.47
2023-04-15T13:01:54.812Z,102235.53
2023-04-15T13:04:22.494Z,102234.69
2023-04-15T13:06:50.184Z,102224.91
2023-04-15T13:09:17.409Z,102247.25
2023-04-15T13:11:44.560Z,102236.84
2023-04-15T13:14:13.244Z,102237.72
2023-04-15T13:16:41.051Z,102236.03
2023-04-15T13:19:08.181Z,102231.50
2023-04-15T13:21:36.341Z,102225.69
2023-04-15T13:24:04.947Z,102231.84
2023-04-15T13:26:32.307Z,102227.13
2023-04-15T13:28:59.863Z,102224.94
2023-04-15T13:31:27.370Z,102229.88
2023-04-15T13:33:54.509Z,102225.00
2023-04-15T13:36:21.754Z,102219.47
2023-04-15T13:38:51.132Z,102231.50
2023-04-15T13:41:18.804Z,102217.22
2023-04-15T13:43:45.900Z,102228.22
2023-04-15T13:46:13.094Z,102224.09
2023-04-15T13:48:40.408Z,102226.34
2023-04-15T13:51:07.492Z,102226.69
2023-04-15T13:53:38.844Z,102220.88
2023-04-15T13:56:08.480Z,102210.78
2023-04-15T13:58:37.242Z,102214.00
2023-04-15T14:01:06.079Z,102225.00
2023-04-15T14:03:36.179Z,102224.72
2023-04-15T14:06:03.789Z,102215.38
2023-04-15T14:08:31.548Z,102210.53
2023-04-15T14:10:58.938Z,102214.69
2023-04-15T14:13:26.077Z,102215.25
2023-04-15T14:15:53.342Z,102210.59
2023-04-15T14:18:20.588Z,102221.47
2023-04-15T14:20:47.587Z,102212.97
2023-04-15T14:23:14.681Z,102212.53
2023-04-15T14:25:41.889Z,102212.88
2023-04-15T14:28:09.375Z,102209.69
2023-04-15T14:30:36.585Z,102212.69
2023-04-15T14:33:04.376Z,102214.19
2023-04-15T14:35:31.677Z,102210.78
2023-04-15T14:37:58.814Z,102215.16
2023-04-15T14:40:26.097Z,102211.75
2023-04-15T14:42:53.169Z,102210.59
2023-04-15T14:45:20.392Z,102206.88
2023-04-15T14:47:47.882Z,102208.88
2023-04-15T14:50:15.051Z,102208.22
2023-04-15T14:52:42.226Z,102205.16
2023-04-15T14:55:11.401Z,102209.91
2023-04-15T14:57:39.432Z,102209.50
2023-04-15T15:00:07.649Z,102202.91
2023-04-15T15:02:39.733Z,102201.75
2023-04-15T15:05:09.065Z,102213.81
2023-04-15T15:07:39.664Z,102210.81
2023-04-15T15:10:07.323Z,102206.03
2023-04-15T15:12:34.615Z,102205.59
2023-04-15T15:15:12.199Z,102206.09
2023-04-15T15:17:43.422Z,102208.41
2023-04-15T15:20:10.980Z,102210.69
2023-04-15T15:22:38.202Z,102205.16
2023-04-15T15:25:05.901Z,102214.44
2023-04-15T15:27:33.407Z,102209.66
2023-04-15T15:30:09.824Z,102207.56
2023-04-15T15:32:38.873Z,102213.44
2023-04-15T15:35:06.699Z,102199.34
2023-04-15T15:37:33.991Z,102210.34
2023-04-15T15:40:01.202Z,102204.84
2023-04-15T15:42:31.937Z,102207.22
2023-04-15T15:44:59.350Z,102206.84
2023-04-15T15:47:28.185Z,102210.06
2023-04-15T15:49:55.386Z,102205.41
2023-04-15T15:52:22.389Z,102211.25
2023-04-15T15:54:49.481Z,102213.78
2023-04-15T15:57:16.596Z,102200.44
2023-04-15T15:59:43.918Z,102202.19
2023-04-15T16:02:12.252Z,102216.63
2023-04-15T16:04:39.797Z,102207.69
2023-04-15T16:07:07.240Z,102219.72
2023-04-15T16:09:34.783Z,102220.41
2023-04-15T16:12:02.325Z,102213.94
2023-04-15T16:14:29.440Z,102215.38
2023-04-15T16:16:56.737Z,102227.50
2023-04-15T16:19:23.903Z,102223.72
2023-04-15T16:21:51.490Z,102217.25
2023-04-15T16:24:18.726Z,102217.75
2023-04-15T16:26:45.838Z,102220.06
2023-04-15T16:29:12.833Z,102220.47
2023-04-15T16:31:41.825Z,102220.16
2023-04-15T16:34:09.118Z,102219.88
2023-04-15T16:36:36.445Z,102215.84
2023-04-15T16:39:04.420Z,102223.31
2023-04-15T16:41:33.911Z,102219.59
2023-04-15T16:44:02.137Z,102223.41
2023-04-15T16:46:30.007Z,102223.78
2023-04-15T16:48:57.088Z,102226.91
2023-04-15T16:51:24.155Z,102225.50
2023-04-15T16:53:51.276Z,102219.00
2023-04-15T16:56:18.505Z,102219.34
2023-04-15T16:58:45.706Z,102226.59
2023-04-15T17:01:12.863Z,102230.47
2023-04-15T17:03:40.292Z,102229.91
2023-04-15T17:06:07.536Z,102228.50
2023-04-15T17:08:34.949Z,102227.91
2023-04-15T17:11:02.006Z,102222.19
2023-04-15T17:13:29.080Z,102228.50
2023-04-15T17:15:56.678Z,102219.44
2023-04-15T17:18:36.129Z,102230.81
2023-04-15T17:21:18.929Z,102238.22
2023-04-15T17:23:52.442Z,102227.97
2023-04-15T17:26:21.224Z,102236.97
2023-04-15T17:28:53.936Z,102226.03
2023-04-15T17:31:32.245Z,102233.28
2023-04-15T17:34:19.322Z,102236.19
2023-04-15T17:37:06.649Z,102238.31
2023-04-15T17:39:53.630Z,102240.47
2023-04-15T17:42:21.800Z,102245.16
2023-04-15T17:45:09.488Z,102243.66
2023-04-15T17:47:56.580Z,102248.25
2023-04-15T17:50:43.600Z,102249.44
2023-04-15T17:53:30.654Z,102247.03
2023-04-15T17:56:17.632Z,102248.06
2023-04-15T17:59:04.703Z,102250.91
2023-04-15T18:01:51.797Z,102259.03
2023-04-15T18:04:39.342Z,102254.09
2023-04-15T18:07:26.609Z,102257.00
2023-04-15T18:10:13.578Z,102259.94
2023-04-15T18:13:00.676Z,102255.88
2023-04-15T18:15:48.983Z,102259.41
2023-04-15T18:18:36.054Z,102262.13
2023-04-15T18:21:03.050Z,102259.72
2023-04-15T18:23:30.120Z,102252.94
2023-04-15T18:25:58.304Z,102259.09
2023-04-15T18:28:25.823Z,102253.13
2023-04-15T18:30:53.556Z,102262.03
2023-04-15T18:33:21.096Z,102255.28
2023-04-15T18:35:50.005Z,102258.13
2023-04-15T18:38:17.456Z,102254.94
2023-04-15T18:40:44.640Z,102262.09
2023-04-15T18:43:11.935Z,102263.22
2023-04-15T18:45:39.141Z,102262.59
2023-04-15T18:48:06.413Z,102262.69
2023-04-15T18:50:33.525Z,102263.75
2023-04-15T18:53:00.621Z,102262.13
2023-04-15T18:55:27.759Z,102265.81
2023-04-15T18:57:56.739Z,102265.97
2023-04-15T19:00:41.968Z,102271.38
2023-04-15T19:03:09.294Z,102270.75
2023-04-15T19:05:37.164Z,102268.34
2023-04-15T19:08:04.153Z,102274.75
2023-04-15T19:10:31.480Z,102274.91
2023-04-15T19:12:58.592Z,102282.09
2023-04-15T19:15:25.685Z,102276.16
2023-04-15T19:17:52.846Z,102279.81
2023-04-15T19:20:19.997Z,102283.50
2023-04-15T19:22:47.433Z,102281.03
2023-04-15T19:25:14.699Z,102279.53
2023-04-15T19:27:41.812Z,102283.97
2023-04-15T19:30:09.126Z,102286.75
2023-04-15T19:32:36.876Z,102290.38
2023-04-15T19:35:05.023Z,102284.50
2023-04-15T19:37:32.804Z,102286.44
2023-04-15T19:40:00.248Z,102289.22
2023-04-15T19:42:28.879Z,102285.88
2023-04-15T19:44:56.810Z,102293.84
2023-04-15T19:47:24.654Z,102300.03
2023-04-15T19:49:52.834Z,102299.25
2023-04-15T19:52:19.890Z,102295.00
2023-04-15T19:54:47.079Z,102303.69
2023-04-15T19:57:14.263Z,102307.19
2023-04-15T19:59:41.448Z,102302.03
2023-04-15T20:02:08.806Z,102308.16
2023-04-15T20:04:36.153Z,102306.47
2023-04-15T20:07:03.334Z,102315.22
2023-04-15T20:09:30.435Z,102303.16
2023-04-15T20:12:46.927Z,102305.88
2023-04-15T20:14:44.790Z,102305.25
2023-04-15T20:17:11.782Z,102315.78
2023-04-15T20:19:39.259Z,102322.94
2023-04-15T20:22:06.370Z,102312.69
2023-04-15T20:24:33.456Z,102312.88
2023-04-15T20:27:00.872Z,102313.91
2023-04-15T20:29:28.085Z,102312.38
2023-04-15T20:31:56.417Z,102304.72
2023-04-15T20:34:23.465Z,102317.91
2023-04-15T20:36:50.902Z,102312.84
2023-04-15T20:39:17.937Z,102313.91
2023-04-15T20:41:45.048Z,102317.59
2023-04-15T20:44:12.186Z,102317.75
2023-04-15T20:46:39.309Z,102320.44
2023-04-15T20:49:06.605Z,102325.81
2023-04-15T20:51:37.877Z,102322.47
2023-04-15T20:54:05.280Z,102324.28
2023-04-15T20:56:32.652Z,102327.91
2023-04-15T20:59:01.290Z,102330.66
2023-04-15T21:01:28.474Z,102331.59
2023-04-15T21:03:55.679Z,102335.22
2023-04-15T21:06:22.798Z,102334.38
2023-04-15T21:08:49.950Z,102337.94
2023-04-15T21:11:36.521Z,102331.03
2023-04-15T21:14:07.577Z,102337.19
2023-04-15T21:16:34.882Z,102338.09
2023-04-15T21:19:02.021Z,102332.94
2023-04-15T21:21:29.137Z,102336.47
2023-04-15T21:23:56.095Z,102330.50
2023-04-15T21:26:23.151Z,102338.38
2023-04-15T21:28:50.254Z,102328.03
2023-04-15T21:31:17.336Z,102322.13
2023-04-15T21:33:44.326Z,102324.78
2023-04-15T21:36:11.411Z,102324.03
2023-04-15T21:38:38.440Z,102326.81
2023-04-15T21:41:09.767Z,102339.91
2023-04-15T21:43:37.204Z,102336.53
2023-04-15T21:46:23.612Z,102341.88
2023-04-15T21:48:52.794Z,102341.97
2023-04-15T21:51:20.005Z,102344.66
2023-04-15T21:53:47.509Z,102343.09
2023-04-15T21:56:14.692Z,102351.84
2023-04-15T21:58:41.698Z,102350.19
2023-04-15T22:01:08.813Z,102352.09
2023-04-15T22:03:36.087Z,102350.44
2023-04-15T22:06:04.106Z,102358.34
2023-04-15T22:08:41.613Z,102357.50
2023-04-15T22:11:29.774Z,102364.53
2023-04-15T22:13:58.050Z,102360.22
2023-04-15T22:16:26.672Z,102366.38
2023-04-15T22:18:55.295Z,102367.28
2023-04-15T22:21:22.735Z,102370.84
2023-04-15T22:23:50.017Z,102364.81
2023-04-15T22:26:17.291Z,102370.91
2023-04-15T22:28:44.303Z,102364.94
2023-04-15T22:31:11.632Z,102365.78
2023-04-15T22:33:39.220Z,102371.09
2023-04-15T22:36:06.520Z,102373.69
2023-04-15T22:38:33.634Z,102367.63
2023-04-15T22:41:00.690Z,102372.94
2023-04-15T22:43:27.968Z,102374.69
2023-04-15T22:45:55.474Z,102377.28
2023-04-15T22:48:23.357Z,102375.59
2023-04-15T22:50:50.521Z,102380.00
2023-04-15T22:53:18.157Z,102385.22
2023-04-15T22:55:48.618Z,102384.41
2023-04-15T22:58:17.253Z,102377.50
2023-04-15T23:00:44.874Z,102389.69
2023-04-15T23:03:12.248Z,102384.44
2023-04-15T23:05:41.452Z,102390.53
2023-04-15T23:08:08.794Z,102380.22
2023-04-15T23:10:36.046Z,102387.97
2023-04-15T23:13:03.138Z,102388.91
2023-04-15T23:15:30.299Z,102387.19
2023-04-15T23:17:57.568Z,102392.44
2023-04-15T23:20:24.607Z,102389.84
2023-04-15T23:22:51.632Z,102383.00
2023-04-15T23:25:22.415Z,102385.66
2023-04-15T23:27:49.452Z,102385.66
2023-04-15T23:30:16.488Z,102398.69
2023-04-15T23:32:43.741Z,102402.22
2023-04-15T23:35:10.987Z,102403.19
2023-04-15T23:37:37.969Z,102403.25
2023-04-15T23:40:05.608Z,102405.94
2023-04-15T23:42:32.703Z,102396.50
2023-04-15T23:44:59.775Z,102413.00
2023-04-15T23:47:26.900Z,102400.94
2023-04-15T23:49:54.122Z,102408.78
2023-04-15T23:52:21.259Z,102413.16
2023-04-15T23:54:48.471Z,102406.31
2023-04-15T23:57:15.634Z,102411.56
2023-04-15T23:59:42.671Z,102420.25
